Time;durP1;ratioP1;P1;durP2;ratioP2;P2;SDS_P1;SDS_P2;PMS_P1;PMS_P2;Temp;Humidity;BMP_temperature;BMP_pressure;BME280_temperature;BME280_humidity;BME280_pressure;Samples;Min_cycle;Max_cycle;Signal;HPM_P1;HPM_P2
2022/12/28 00:01:55;;;;;;;9.67;4.73;;;11.00;85.40;;;;;;5000393;28;20203;-85
2022/12/28 00:04:24;;;;;;;8.83;5.00;;;10.90;84.70;;;;;;5018276;28;20302;-83
2022/12/28 00:06:52;;;;;;;8.90;4.00;;;10.90;84.40;;;;;;5010061;28;20205;-84
2022/12/28 00:09:21;;;;;;;8.77;4.43;;;10.80;84.20;;;;;;5004717;28;20247;-83
2022/12/28 00:11:49;;;;;;;8.40;4.85;;;10.80;84.00;;;;;;4997732;28;20452;-84
2022/12/28 00:14:17;;;;;;;8.10;3.47;;;10.80;84.00;;;;;;5007201;28;20188;-85
2022/12/28 00:16:47;;;;;;;5.77;3.17;;;10.70;82.90;;;;;;5014940;28;20649;-84
2022/12/28 00:19:17;;;;;;;4.87;2.87;;;10.60;82.30;;;;;;5010383;28;20569;-85
2022/12/28 00:21:46;;;;;;;4.80;2.57;;;10.60;82.50;;;;;;5002668;28;20204;-84
2022/12/28 00:24:19;;;;;;;4.88;2.75;;;10.50;82.00;;;;;;5007730;28;20437;-86
2022/12/28 00:26:48;;;;;;;5.13;2.27;;;10.50;82.10;;;;;;5006040;28;20247;-86
2022/12/28 00:29:16;;;;;;;5.90;2.10;;;10.40;81.90;;;;;;5003988;28;20229;-83
2022/12/28 00:31:45;;;;;;;3.90;2.17;;;10.40;81.80;;;;;;5006635;28;20283;-83
2022/12/28 00:34:15;;;;;;;5.50;2.80;;;10.30;81.60;;;;;;5004893;28;20547;-85
2022/12/28 00:36:43;;;;;;;4.93;2.35;;;10.20;81.50;;;;;;4970252;28;20457;-84
2022/12/28 00:39:31;;;;;;;5.50;2.10;;;10.20;81.70;;;;;;5004572;28;20207;-84
2022/12/28 00:42:00;;;;;;;4.23;1.97;;;10.10;81.10;;;;;;4998725;28;20360;-83
2022/12/28 00:44:28;;;;;;;6.20;2.20;;;10.00;80.40;;;;;;5004307;28;20208;-84
2022/12/28 00:46:57;;;;;;;3.40;1.87;;;10.00;80.20;;;;;;5012214;28;20228;-84
2022/12/28 00:49:27;;;;;;;3.33;1.50;;;10.00;80.40;;;;;;5011445;28;20255;-84
2022/12/28 00:51:55;;;;;;;5.00;2.23;;;9.90;80.40;;;;;;5004994;28;20235;-83
2022/12/28 00:54:23;;;;;;;4.17;1.90;;;9.80;80.60;;;;;;5008201;28;20249;-81
2022/12/28 00:56:51;;;;;;;4.70;2.13;;;9.80;80.40;;;;;;5004604;28;20200;-82
2022/12/28 00:59:20;;;;;;;6.88;2.10;;;9.70;80.40;;;;;;5013377;28;20929;-85
2022/12/28 01:01:48;;;;;;;3.07;1.63;;;9.80;80.60;;;;;;5003401;28;22720;-84
2022/12/28 01:04:17;;;;;;;4.17;2.23;;;9.70;80.80;;;;;;5005823;28;20192;-84
2022/12/28 01:06:46;;;;;;;4.73;2.40;;;9.80;80.80;;;;;;5005789;28;20199;-81
2022/12/28 01:09:15;;;;;;;2.83;1.80;;;9.70;80.50;;;;;;5008824;28;20196;-83
2022/12/28 01:11:43;;;;;;;5.33;2.20;;;9.70;80.60;;;;;;5003118;28;20235;-82
2022/12/28 01:14:12;;;;;;;4.97;2.30;;;9.70;80.60;;;;;;5004421;28;20200;-83
2022/12/28 01:16:40;;;;;;;7.80;2.47;;;9.60;80.80;;;;;;5009523;28;20699;-86
2022/12/28 01:19:11;;;;;;;3.50;1.80;;;9.60;80.80;;;;;;5007791;28;20200;-84
2022/12/28 01:21:40;;;;;;;5.30;1.93;;;9.50;80.60;;;;;;5000960;28;20193;-84
2022/12/28 01:24:10;;;;;;;4.93;1.70;;;9.50;80.60;;;;;;5001648;28;20189;-85
2022/12/28 01:26:38;;;;;;;4.07;1.77;;;9.50;80.50;;;;;;4998767;28;20197;-83
2022/12/28 01:29:07;;;;;;;6.80;2.50;;;9.50;80.40;;;;;;5003377;28;20192;-82
2022/12/28 01:31:35;;;;;;;4.63;1.97;;;9.40;80.50;;;;;;4999503;28;20763;-84
2022/12/28 01:34:04;;;;;;;2.53;1.53;;;9.40;80.40;;;;;;5007075;28;20289;-84
2022/12/28 01:36:34;;;;;;;4.07;1.60;;;9.40;80.30;;;;;;5011788;28;20197;-84
2022/12/28 01:39:05;;;;;;;5.80;2.20;;;9.40;80.20;;;;;;5008781;28;20197;-83
2022/12/28 01:41:38;;;;;;;5.63;1.77;;;9.40;80.20;;;;;;4998371;28;20200;-85
2022/12/28 01:44:41;;;;;;;3.20;1.60;;;9.30;79.90;;;;;;5004240;28;20188;-83
2022/12/28 01:47:22;;;;;;;3.20;1.37;;;9.30;80.00;;;;;;4993559;28;20224;-81
2022/12/28 01:49:58;;;;;;;3.10;1.30;;;9.20;79.80;;;;;;4998530;28;20204;-83
2022/12/28 01:52:30;;;;;;;3.43;1.60;;;9.20;79.60;;;;;;5004793;28;20219;-82
2022/12/28 01:55:05;;;;;;;5.47;1.50;;;9.20;79.60;;;;;;5003610;28;20201;-83
2022/12/28 01:57:40;;;;;;;6.27;2.33;;;9.20;79.70;;;;;;5000149;28;20188;-85
2022/12/28 02:00:12;;;;;;;3.90;1.37;;;9.10;79.40;;;;;;5008970;28;20299;-82
2022/12/28 02:02:45;;;;;;;2.83;1.20;;;9.10;79.70;;;;;;5002481;28;20342;-81
2022/12/28 02:05:15;;;;;;;5.33;1.70;;;9.10;79.70;;;;;;5004633;28;20185;-84
2022/12/28 02:07:51;;;;;;;4.13;1.57;;;9.10;80.00;;;;;;5006574;28;22046;-83
2022/12/28 02:10:20;;;;;;;3.90;1.63;;;9.00;79.90;;;;;;5002392;28;20251;-84
2022/12/28 02:13:10;;;;;;;2.83;1.50;;;9.00;80.00;;;;;;5004187;28;20707;-84
2022/12/28 02:15:38;;;;;;;3.03;1.53;;;9.00;80.10;;;;;;5000870;28;21137;-82
2022/12/28 02:18:07;;;;;;;3.50;1.40;;;9.00;80.10;;;;;;5010657;28;20212;-85
2022/12/28 02:20:46;;;;;;;7.17;1.93;;;9.00;80.20;;;;;;5007825;28;20653;-84
2022/12/28 02:23:38;;;;;;;4.63;1.70;;;9.00;80.10;;;;;;4999478;28;20247;-80
2022/12/28 02:26:32;;;;;;;9.40;1.97;;;9.00;80.10;;;;;;5002182;28;20201;-87
2022/12/28 02:29:28;;;;;;;4.40;1.83;;;9.00;79.90;;;;;;5001890;28;20235;-82
2022/12/28 02:32:06;;;;;;;6.90;1.67;;;9.00;80.00;;;;;;5002205;28;20212;-85
2022/12/28 02:34:41;;;;;;;5.57;1.60;;;9.00;80.00;;;;;;5007180;28;20239;-80
2022/12/28 02:37:16;;;;;;;5.53;1.80;;;9.10;80.00;;;;;;5000407;28;20295;-83
2022/12/28 02:39:51;;;;;;;2.97;1.33;;;9.00;79.90;;;;;;5000067;28;20199;-85
2022/12/28 02:42:22;;;;;;;6.57;2.03;;;9.00;79.80;;;;;;5000703;28;20196;-84
2022/12/28 02:50:37;;;;;;;3.37;1.50;;;9.00;79.90;;;;;;5006284;28;20197;-85
2022/12/28 02:53:33;;;;;;;6.60;1.60;;;9.10;80.00;;;;;;5008681;28;20212;-84
2022/12/28 02:56:12;;;;;;;4.60;1.57;;;9.10;80.00;;;;;;5010231;28;20548;-83
2022/12/28 02:59:14;;;;;;;3.27;1.70;;;9.00;80.50;;;;;;5004279;28;20637;-83
2022/12/28 03:02:23;;;;;;;5.13;1.73;;;9.00;79.80;;;;;;5004241;28;20192;-82
2022/12/28 03:05:08;;;;;;;2.90;1.50;;;9.00;79.30;;;;;;4981815;28;20208;-83
2022/12/28 03:10:44;;;;;;;9.73;2.00;;;9.00;79.50;;;;;;5009104;28;20188;-84
2022/12/28 03:16:08;;;;;;;4.67;1.87;;;9.00;79.50;;;;;;5006309;28;20227;-86
2022/12/28 03:32:48;;;;;;;4.20;1.43;;;8.90;78.70;;;;;;5011174;28;20286;-84
2022/12/28 03:35:20;;;;;;;3.30;1.10;;;8.90;78.50;;;;;;5008697;28;20208;-79
2022/12/28 03:37:56;;;;;;;4.60;1.87;;;8.90;78.50;;;;;;5014599;28;20195;-83
2022/12/28 03:40:31;;;;;;;4.38;1.60;;;8.90;78.50;;;;;;5005726;28;20422;-84
2022/12/28 03:45:55;;;;;;;4.63;1.83;;;8.90;78.20;;;;;;5012928;28;20193;-84
2022/12/28 03:48:25;;;;;;;5.03;1.60;;;8.80;77.80;;;;;;5026069;28;20220;-85
2022/12/28 03:50:55;;;;;;;6.05;2.05;;;8.80;77.90;;;;;;5027637;28;21155;-85
2022/12/28 03:53:29;;;;;;;5.10;1.63;;;8.80;78.20;;;;;;5027573;28;20224;-84
2022/12/28 03:56:10;;;;;;;4.83;1.60;;;8.80;78.20;;;;;;5028092;28;20184;-85
2022/12/28 03:58:38;;;;;;;5.00;1.53;;;8.80;77.80;;;;;;5023885;28;20620;-85
2022/12/28 04:01:06;;;;;;;3.50;1.60;;;8.80;77.90;;;;;;5025034;28;20200;-84
2022/12/28 04:03:35;;;;;;;6.70;1.77;;;8.80;77.60;;;;;;5031093;28;20310;-85
2022/12/28 04:06:06;;;;;;;3.60;1.80;;;8.80;77.50;;;;;;5030581;28;20234;-85
2022/12/28 04:08:35;;;;;;;6.20;1.63;;;8.80;77.20;;;;;;5030748;28;20258;-85
2022/12/28 04:11:03;;;;;;;4.97;1.70;;;8.70;76.30;;;;;;5029291;28;20204;-85
2022/12/28 04:13:32;;;;;;;5.87;1.93;;;8.70;76.60;;;;;;5027148;28;20311;-84
2022/12/28 04:16:02;;;;;;;3.90;1.40;;;8.70;76.90;;;;;;5030907;28;20195;-84
2022/12/28 04:18:31;;;;;;;7.93;2.10;;;8.80;76.60;;;;;;5031676;28;20284;-82
2022/12/28 04:21:00;;;;;;;5.63;1.80;;;8.70;76.10;;;;;;5024750;28;20257;-82
2022/12/28 04:23:31;;;;;;;8.70;2.57;;;8.80;76.50;;;;;;5026048;28;20211;-83
2022/12/28 04:26:01;;;;;;;6.90;1.80;;;8.80;76.20;;;;;;5021451;28;20578;-86
2022/12/28 04:28:31;;;;;;;6.83;1.63;;;8.80;76.20;;;;;;5022931;28;20250;-84
2022/12/28 04:31:00;;;;;;;2.60;1.53;;;8.80;75.80;;;;;;5031068;28;20191;-85
2022/12/28 04:33:31;;;;;;;4.88;2.03;;;8.80;75.60;;;;;;5026285;28;20455;-82
2022/12/28 04:36:05;;;;;;;6.63;1.70;;;8.80;75.70;;;;;;5025643;28;20246;-80
2022/12/28 04:38:36;;;;;;;8.63;1.97;;;8.80;75.20;;;;;;5032400;28;20217;-84
2022/12/28 04:41:06;;;;;;;4.43;1.70;;;8.80;75.40;;;;;;5025414;28;20269;-84
2022/12/28 04:43:35;;;;;;;4.20;1.60;;;8.80;75.10;;;;;;5024885;28;20265;-85
2022/12/28 04:46:05;;;;;;;3.97;1.80;;;8.80;75.10;;;;;;5026466;28;20438;-84
2022/12/28 04:48:34;;;;;;;2.83;1.33;;;8.90;75.10;;;;;;5011068;28;20257;-84
2022/12/28 04:51:07;;;;;;;6.93;1.70;;;8.90;74.90;;;;;;5005779;28;20594;-83
2022/12/28 04:53:41;;;;;;;5.27;1.90;;;8.90;74.80;;;;;;5004555;28;20212;-84
2022/12/28 04:56:11;;;;;;;11.57;2.43;;;8.90;74.50;;;;;;5010560;28;20247;-84
2022/12/28 04:58:40;;;;;;;6.47;2.00;;;8.90;74.80;;;;;;5006224;28;20193;-85
2022/12/28 05:01:11;;;;;;;5.67;1.40;;;8.90;74.40;;;;;;5003306;28;20196;-84
2022/12/28 05:03:41;;;;;;;3.37;1.87;;;8.90;74.10;;;;;;5009071;28;20578;-84
2022/12/28 05:06:13;;;;;;;7.93;1.87;;;8.90;74.20;;;;;;5008744;28;20712;-85
2022/12/28 05:08:44;;;;;;;5.35;2.13;;;8.90;74.00;;;;;;4999736;28;20468;-85
2022/12/28 05:11:15;;;;;;;9.77;1.97;;;8.90;74.10;;;;;;5004772;28;20200;-85
2022/12/28 05:13:43;;;;;;;7.37;2.50;;;8.90;74.00;;;;;;5004493;28;20275;-83
2022/12/28 05:16:13;;;;;;;3.00;1.60;;;8.90;73.90;;;;;;5002798;28;20242;-84
2022/12/28 05:18:43;;;;;;;6.60;1.70;;;8.90;73.80;;;;;;5006551;28;20203;-84
2022/12/28 05:21:13;;;;;;;6.03;2.30;;;8.90;73.70;;;;;;5000104;28;20445;-84
2022/12/28 05:23:44;;;;;;;7.63;1.83;;;8.90;73.60;;;;;;5009229;28;20616;-84
2022/12/28 05:26:16;;;;;;;6.17;1.40;;;8.90;73.20;;;;;;5008920;28;20696;-84
2022/12/28 05:28:45;;;;;;;4.70;1.83;;;8.90;73.30;;;;;;5007328;28;20204;-80
2022/12/28 05:31:15;;;;;;;4.47;1.47;;;8.90;73.20;;;;;;5007705;28;20770;-84
2022/12/28 05:33:44;;;;;;;8.13;2.20;;;8.90;72.90;;;;;;5014457;28;20216;-84
2022/12/28 05:36:14;;;;;;;5.07;1.67;;;8.90;72.70;;;;;;5010909;28;20202;-83
2022/12/28 05:38:44;;;;;;;4.73;1.87;;;8.90;72.90;;;;;;5009082;28;20192;-85
2022/12/28 05:41:17;;;;;;;6.30;2.47;;;8.90;72.70;;;;;;5009427;28;20208;-84
2022/12/28 05:43:45;;;;;;;6.23;2.23;;;8.90;72.60;;;;;;5004631;28;20209;-84
2022/12/28 05:46:17;;;;;;;5.37;2.10;;;8.90;72.90;;;;;;5002724;28;20263;-82
2022/12/28 05:48:47;;;;;;;3.20;1.63;;;8.90;72.70;;;;;;5011211;28;20720;-84
2022/12/28 05:51:17;;;;;;;5.87;2.17;;;8.90;72.70;;;;;;5007379;28;20558;-84
2022/12/28 05:53:47;;;;;;;7.60;1.57;;;8.90;72.80;;;;;;5007558;28;20208;-85
2022/12/28 05:56:17;;;;;;;4.80;2.13;;;8.90;72.80;;;;;;5011776;28;20258;-85
2022/12/28 05:58:51;;;;;;;3.97;1.60;;;8.90;73.00;;;;;;5008897;28;20254;-84
2022/12/28 06:01:22;;;;;;;7.40;1.73;;;8.90;73.00;;;;;;5004087;28;20243;-84
2022/12/28 06:03:54;;;;;;;4.53;1.77;;;8.90;73.00;;;;;;5008670;28;20222;-84
2022/12/28 06:06:23;;;;;;;9.83;2.33;;;8.90;73.20;;;;;;5007416;28;20192;-85
2022/12/28 06:08:53;;;;;;;6.27;1.77;;;8.90;73.30;;;;;;5007068;28;20192;-84
2022/12/28 06:11:24;;;;;;;4.47;1.70;;;8.80;73.30;;;;;;5008778;28;20207;-83
2022/12/28 06:14:05;;;;;;;7.13;2.20;;;8.90;73.40;;;;;;5007286;28;20673;-84
2022/12/28 06:16:35;;;;;;;7.67;2.43;;;8.90;73.40;;;;;;4981186;28;20204;-84
2022/12/28 06:19:05;;;;;;;5.67;1.93;;;8.90;73.60;;;;;;5006304;28;20630;-84
2022/12/28 06:21:39;;;;;;;6.80;2.67;;;8.90;73.70;;;;;;5007809;28;20306;-84
2022/12/28 06:24:10;;;;;;;9.13;2.80;;;8.90;73.60;;;;;;5005934;28;20280;-82
2022/12/28 06:26:40;;;;;;;7.40;2.47;;;8.90;73.50;;;;;;5000384;28;20192;-84
2022/12/28 06:29:09;;;;;;;8.00;2.53;;;8.90;73.60;;;;;;5007890;28;20192;-84
2022/12/28 06:31:39;;;;;;;8.63;2.80;;;8.90;73.60;;;;;;5009163;28;20192;-84
2022/12/28 06:34:09;;;;;;;5.13;2.30;;;8.90;73.60;;;;;;5013328;28;20880;-83
2022/12/28 06:36:40;;;;;;;5.30;1.90;;;8.90;73.70;;;;;;5011152;28;20761;-83
2022/12/28 06:39:12;;;;;;;7.40;2.23;;;8.90;73.60;;;;;;4998713;28;20185;-84
2022/12/28 06:41:41;;;;;;;5.37;2.00;;;8.90;73.60;;;;;;4986620;28;20189;-83
2022/12/28 06:44:11;;;;;;;6.60;2.27;;;8.90;73.70;;;;;;5015494;28;20188;-83
2022/12/28 06:46:40;;;;;;;7.20;1.90;;;8.90;73.60;;;;;;5007731;28;20878;-84
2022/12/28 06:49:08;;;;;;;6.40;2.43;;;9.00;73.80;;;;;;5012244;28;20199;-83
2022/12/28 06:51:40;;;;;;;8.80;2.00;;;9.00;73.80;;;;;;5001304;28;20219;-85
2022/12/28 06:54:11;;;;;;;10.70;3.20;;;9.00;74.00;;;;;;5002097;28;20461;-84
2022/12/28 06:56:39;;;;;;;11.33;2.90;;;9.00;74.20;;;;;;5011633;28;20192;-85
2022/12/28 06:59:08;;;;;;;7.83;2.83;;;9.10;74.30;;;;;;5011910;28;20193;-83
2022/12/28 07:01:37;;;;;;;9.10;2.80;;;9.10;74.30;;;;;;5005538;28;20204;-84
2022/12/28 07:04:09;;;;;;;8.43;2.90;;;9.10;73.90;;;;;;5003724;28;20197;-85
2022/12/28 07:06:39;;;;;;;9.70;2.57;;;9.10;74.00;;;;;;5014094;28;20189;-85
2022/12/28 07:09:12;;;;;;;10.00;3.43;;;9.20;74.10;;;;;;5009267;28;20188;-85
2022/12/28 07:11:41;;;;;;;4.90;2.27;;;9.20;74.30;;;;;;5008998;28;20200;-85
2022/12/28 07:14:10;;;;;;;6.50;2.00;;;9.30;74.30;;;;;;5006911;28;20234;-85
2022/12/28 07:16:39;;;;;;;8.63;3.03;;;9.30;74.10;;;;;;5013012;28;20913;-85
2022/12/28 07:19:06;;;;;;;8.60;2.40;;;9.30;74.30;;;;;;5006912;28;20232;-84
2022/12/28 07:21:36;;;;;;;6.20;2.53;;;9.30;74.40;;;;;;5000332;28;20215;-85
2022/12/28 07:24:06;;;;;;;9.37;2.67;;;9.40;74.50;;;;;;5010589;28;20288;-84
2022/12/28 07:26:37;;;;;;;5.80;2.30;;;9.40;74.10;;;;;;5010363;28;20907;-84
2022/12/28 07:32:54;;;;;;;4.80;2.60;;;9.50;74.10;;;;;;5002505;28;20327;-85
2022/12/28 07:35:28;;;;;;;6.20;2.23;;;9.60;74.10;;;;;;5007298;28;20299;-84
2022/12/28 07:38:04;;;;;;;7.90;2.23;;;9.60;73.80;;;;;;5010682;28;20275;-84
2022/12/28 07:43:34;;;;;;;5.77;2.20;;;9.70;73.80;;;;;;5004692;28;20217;-86
2022/12/28 07:46:07;;;;;;;4.43;2.00;;;9.80;73.70;;;;;;5014387;28;20200;-86
2022/12/28 07:48:46;;;;;;;5.37;2.33;;;9.90;73.40;;;;;;5005844;28;20259;-84
2022/12/28 07:51:17;;;;;;;5.93;2.07;;;9.90;72.80;;;;;;5009564;28;20199;-85
2022/12/28 07:53:51;;;;;;;5.40;2.00;;;10.00;72.20;;;;;;5009089;28;20204;-82
2022/12/28 07:56:23;;;;;;;5.00;2.50;;;10.00;72.10;;;;;;5010201;28;20207;-81
2022/12/28 07:58:55;;;;;;;4.87;2.30;;;10.10;71.70;;;;;;5004268;28;22331;-82
2022/12/28 08:01:37;;;;;;;12.27;2.80;;;10.10;71.50;;;;;;5014021;28;20200;-79
2022/12/28 08:04:09;;;;;;;7.23;2.43;;;10.10;71.70;;;;;;4952238;28;20442;-84
2022/12/28 08:06:39;;;;;;;7.70;2.07;;;10.20;71.70;;;;;;5005629;28;20200;-80
2022/12/28 08:09:08;;;;;;;8.37;2.33;;;10.20;70.80;;;;;;5014674;28;20208;-82
2022/12/28 08:11:38;;;;;;;5.83;2.30;;;10.20;70.30;;;;;;5005579;28;20680;-81
2022/12/28 08:14:12;;;;;;;9.03;2.23;;;10.20;70.30;;;;;;5003025;28;20196;-81
2022/12/28 08:16:43;;;;;;;14.27;3.67;;;10.30;70.20;;;;;;5007558;28;20214;-79
2022/12/28 08:19:12;;;;;;;4.30;2.00;;;10.40;70.70;;;;;;5004388;28;20204;-79
2022/12/28 08:21:45;;;;;;;6.77;2.47;;;10.40;71.10;;;;;;5011286;28;20688;-80
2022/12/28 08:28:09;;;;;;;6.03;1.80;;;10.50;70.70;;;;;;4998870;28;20204;-81
2022/12/28 08:38:15;;;;;;;4.77;1.60;;;10.60;69.70;;;;;;5002972;28;20224;-79
2022/12/28 08:41:04;;;;;;;8.50;2.37;;;10.60;69.50;;;;;;5008773;28;20204;-81
2022/12/28 08:43:34;;;;;;;4.87;2.17;;;10.60;69.20;;;;;;5008917;28;20231;-79
2022/12/28 08:46:40;;;;;;;8.57;2.53;;;10.60;69.10;;;;;;5002302;28;20199;-80
2022/12/28 08:49:20;;;;;;;2.90;1.70;;;10.70;68.90;;;;;;5006731;28;20240;-80
2022/12/28 08:51:48;;;;;;;7.93;2.30;;;10.70;68.80;;;;;;4992802;28;20231;-79
2022/12/28 08:54:41;;;;;;;6.10;1.70;;;10.70;67.70;;;;;;4988590;28;20228;-80
2022/12/28 08:57:22;;;;;;;4.93;1.90;;;10.80;67.60;;;;;;5001097;28;20216;-81
2022/12/28 09:00:29;;;;;;;;;;;;;;;;;;;;;
2022/12/28 09:03:37;;;;;;;5.03;2.10;;;10.80;67.30;;;;;;4933013;29;20262;-80
2022/12/28 09:11:06;;;;;;;7.97;2.17;;;10.90;67.40;;;;;;4871152;29;20197;-80
2022/12/28 09:20:48;;;;;;;4.80;1.63;;;11.00;65.90;;;;;;4869474;29;20205;-81
2022/12/28 09:23:46;;;;;;;6.63;2.17;;;11.10;66.10;;;;;;4868524;29;20206;-80
2022/12/28 09:26:17;;;;;;;5.50;1.87;;;11.20;66.10;;;;;;4907093;29;20199;-80
2022/12/28 09:28:46;;;;;;;4.50;1.90;;;11.30;65.50;;;;;;4931919;29;20282;-81
2022/12/28 09:31:30;;;;;;;7.13;2.30;;;11.30;65.00;;;;;;4931409;29;20728;-83
2022/12/28 09:34:21;;;;;;;3.77;2.00;;;11.40;65.30;;;;;;4927951;29;20683;-80
2022/12/28 09:37:04;;;;;;;8.27;1.97;;;11.40;63.70;;;;;;4930038;29;20274;-85
2022/12/28 09:39:36;;;;;;;4.07;1.90;;;11.50;63.40;;;;;;4926245;28;20203;-83
2022/12/28 09:42:11;;;;;;;3.87;1.77;;;11.50;63.10;;;;;;5011703;28;20630;-83
2022/12/28 09:44:50;;;;;;;3.80;2.00;;;11.40;62.70;;;;;;5017320;28;20203;-82
2022/12/28 09:47:30;;;;;;;4.77;1.93;;;11.50;63.30;;;;;;5011092;28;20263;-84
2022/12/28 09:50:07;;;;;;;4.33;2.20;;;11.40;62.80;;;;;;5011284;28;20200;-83
2022/12/28 09:52:40;;;;;;;6.10;2.87;;;11.40;62.70;;;;;;5001571;28;20196;-83
2022/12/28 09:55:18;;;;;;;6.27;2.30;;;11.50;63.00;;;;;;5004426;28;20262;-82
2022/12/28 09:57:50;;;;;;;6.20;2.70;;;11.50;63.10;;;;;;5010245;28;20204;-80
2022/12/28 10:00:21;;;;;;;5.50;2.20;;;11.50;63.00;;;;;;5007147;28;20798;-84
2022/12/28 10:02:58;;;;;;;6.83;2.37;;;11.60;63.10;;;;;;5002106;28;20219;-83
2022/12/28 10:05:31;;;;;;;16.77;3.47;;;11.60;63.40;;;;;;5003022;28;20200;-81
2022/12/28 10:07:59;;;;;;;8.40;2.20;;;11.70;63.90;;;;;;5013879;28;20187;-80
2022/12/28 10:10:29;;;;;;;8.43;2.87;;;11.80;64.10;;;;;;5011317;28;20196;-81
2022/12/28 10:13:07;;;;;;;4.97;2.33;;;11.80;63.90;;;;;;5014737;28;20212;-81
2022/12/28 10:15:57;;;;;;;7.57;2.67;;;11.80;63.30;;;;;;5010843;28;20224;-82
2022/12/28 10:18:28;;;;;;;3.97;1.87;;;11.80;63.10;;;;;;5010519;28;20234;-84
2022/12/28 10:21:04;;;;;;;6.73;2.50;;;11.80;61.90;;;;;;4985237;28;20224;-81
2022/12/28 10:23:36;;;;;;;6.80;2.13;;;11.80;61.30;;;;;;5008264;28;20205;-83
2022/12/28 10:26:24;;;;;;;6.50;2.27;;;11.80;61.90;;;;;;5015573;28;20192;-81
2022/12/28 10:28:54;;;;;;;5.83;1.87;;;11.80;62.50;;;;;;5022360;28;20209;-82
2022/12/28 10:31:33;;;;;;;4.33;1.73;;;11.80;61.60;;;;;;5006609;28;20227;-84
2022/12/28 10:34:14;;;;;;;3.77;1.60;;;11.80;61.70;;;;;;5004229;28;20224;-81
2022/12/28 10:36:45;;;;;;;2.80;1.40;;;11.90;61.20;;;;;;5018150;28;20214;-82
2022/12/28 10:39:22;;;;;;;3.33;1.50;;;11.90;60.00;;;;;;5025341;28;20318;-83
2022/12/28 10:41:51;;;;;;;4.57;1.80;;;11.90;59.50;;;;;;5016435;28;20265;-82
2022/12/28 10:44:24;;;;;;;4.77;1.97;;;11.90;59.20;;;;;;5003966;28;20197;-82
2022/12/28 10:47:18;;;;;;;6.57;1.70;;;12.00;60.20;;;;;;5008598;28;20208;-83
2022/12/28 10:49:59;;;;;;;4.40;1.57;;;11.90;59.10;;;;;;5013398;28;20200;-83
2022/12/28 10:53:01;;;;;;;4.50;1.60;;;12.00;60.00;;;;;;5002864;28;20294;-81
2022/12/28 10:55:33;;;;;;;5.33;1.40;;;12.00;60.00;;;;;;5009970;28;20238;-83
2022/12/28 10:58:21;;;;;;;5.73;1.77;;;12.10;59.50;;;;;;5009995;28;20199;-81
2022/12/28 11:01:03;;;;;;;4.57;1.50;;;12.10;59.70;;;;;;5011769;28;20574;-78
2022/12/28 11:03:37;;;;;;;3.63;1.60;;;12.20;59.00;;;;;;5007412;28;20262;-82
2022/12/28 11:06:12;;;;;;;3.87;1.43;;;12.20;58.30;;;;;;5008817;28;20189;-79
2022/12/28 11:08:43;;;;;;;7.47;1.77;;;12.20;58.20;;;;;;5010806;28;20246;-83
2022/12/28 11:11:19;;;;;;;4.47;1.50;;;12.20;57.80;;;;;;5007862;28;20224;-80
2022/12/28 11:13:55;;;;;;;26.30;3.37;;;12.30;58.30;;;;;;5003285;28;20287;-81
2022/12/28 11:16:23;;;;;;;9.77;2.07;;;12.30;58.40;;;;;;5005684;28;20450;-80
2022/12/28 11:18:52;;;;;;;4.97;1.93;;;12.40;58.70;;;;;;5010663;28;20941;-78
2022/12/28 11:21:22;;;;;;;6.30;1.77;;;12.40;58.60;;;;;;5015640;28;20196;-80
2022/12/28 11:23:52;;;;;;;4.97;1.60;;;12.40;58.00;;;;;;5011858;28;20558;-81
2022/12/28 11:26:21;;;;;;;6.63;1.77;;;12.40;57.30;;;;;;5011317;28;20208;-81
2022/12/28 11:28:51;;;;;;;5.57;1.70;;;12.50;58.00;;;;;;5010792;28;20257;-83
2022/12/28 11:31:25;;;;;;;5.90;1.23;;;12.50;57.90;;;;;;5017111;28;20235;-82
2022/12/28 11:33:56;;;;;;;4.07;1.70;;;12.60;57.90;;;;;;5010986;28;20834;-82
2022/12/28 11:36:27;;;;;;;4.07;1.47;;;12.60;58.00;;;;;;5006541;28;20680;-82
2022/12/28 11:38:57;;;;;;;2.70;1.27;;;12.70;58.10;;;;;;5015060;28;20231;-83
2022/12/28 11:41:45;;;;;;;2.23;1.23;;;12.70;58.40;;;;;;5014898;28;20723;-82
2022/12/28 11:44:52;;;;;;;4.87;1.43;;;12.80;58.30;;;;;;5013793;28;21060;-81
2022/12/28 11:47:32;;;;;;;5.30;1.57;;;12.80;57.20;;;;;;5003824;28;20232;-81
2022/12/28 11:50:38;;;;;;;3.57;1.40;;;12.90;56.40;;;;;;5018228;28;20655;-81
2022/12/28 11:53:48;;;;;;;3.53;1.30;;;12.90;56.80;;;;;;5011254;28;20200;-83
2022/12/28 11:56:17;;;;;;;1.83;1.00;;;13.00;57.60;;;;;;5006553;28;20282;-81
2022/12/28 11:59:00;;;;;;;3.93;1.87;;;13.10;57.40;;;;;;5015004;28;20619;-82
2022/12/28 12:01:43;;;;;;;3.73;1.37;;;13.10;57.50;;;;;;5010541;28;20187;-83
2022/12/28 12:04:38;;;;;;;3.57;1.60;;;13.20;57.30;;;;;;5005037;28;20200;-78
2022/12/28 12:07:24;;;;;;;3.13;1.30;;;13.20;57.00;;;;;;5005465;28;20200;-82
2022/12/28 12:10:30;;;;;;;3.77;1.80;;;13.30;57.30;;;;;;5001669;28;20653;-80
2022/12/28 12:12:59;;;;;;;4.80;1.87;;;13.30;57.20;;;;;;5002884;28;20783;-79
2022/12/28 12:15:33;;;;;;;3.20;1.33;;;13.30;56.80;;;;;;4994451;28;20205;-81
2022/12/28 12:18:04;;;;;;;3.63;1.33;;;13.30;56.80;;;;;;5010426;28;20566;-80
2022/12/28 12:21:02;;;;;;;2.60;1.63;;;13.40;57.40;;;;;;5000913;28;20592;-81
2022/12/28 12:23:39;;;;;;;2.77;1.37;;;13.40;56.50;;;;;;5005523;28;20193;-79
2022/12/28 12:26:20;;;;;;;4.07;1.47;;;13.40;56.60;;;;;;5007286;28;20337;-81
2022/12/28 12:28:51;;;;;;;2.50;1.47;;;13.50;56.50;;;;;;5021695;28;20292;-81
2022/12/28 12:31:27;;;;;;;4.83;1.43;;;13.50;55.80;;;;;;5013019;28;20218;-83
2022/12/28 12:34:06;;;;;;;4.07;1.70;;;13.40;55.10;;;;;;5010822;28;20196;-83
2022/12/28 12:37:20;;;;;;;3.50;1.40;;;13.40;55.70;;;;;;5007115;28;20618;-83
2022/12/28 12:40:22;;;;;;;2.60;1.10;;;13.40;55.40;;;;;;4995559;28;20203;-81
2022/12/28 12:43:09;;;;;;;2.97;1.20;;;13.40;55.50;;;;;;4993228;28;20599;-81
2022/12/28 12:45:46;;;;;;;5.97;1.50;;;13.40;55.70;;;;;;5011244;28;20713;-82
2022/12/28 12:48:45;;;;;;;9.37;1.90;;;13.40;55.00;;;;;;5003370;28;20320;-82
2022/12/28 12:51:24;;;;;;;3.67;1.07;;;13.30;55.70;;;;;;4990509;28;20652;-82
2022/12/28 12:54:04;;;;;;;2.87;1.60;;;13.40;55.30;;;;;;5004410;28;20266;-82
2022/12/28 12:56:47;;;;;;;4.43;1.57;;;13.40;56.00;;;;;;5003635;28;20572;-83
2022/12/28 12:59:34;;;;;;;2.47;1.30;;;13.40;55.70;;;;;;5006277;28;20246;-79
2022/12/28 13:02:42;;;;;;;2.20;1.17;;;13.40;55.50;;;;;;5004605;28;20318;-80
2022/12/28 13:05:17;;;;;;;4.47;1.50;;;13.60;56.20;;;;;;5007039;28;20636;-80
2022/12/28 13:07:45;;;;;;;4.33;1.77;;;13.70;57.00;;;;;;5003159;28;20197;-81
2022/12/28 13:10:18;;;;;;;2.43;1.30;;;13.90;56.70;;;;;;5009716;28;20204;-80
2022/12/28 13:12:46;;;;;;;3.03;1.07;;;14.10;56.70;;;;;;5005781;28;20200;-83
2022/12/28 13:15:18;;;;;;;4.27;1.67;;;14.40;56.70;;;;;;5006384;28;20263;-83
2022/12/28 13:17:59;;;;;;;2.50;1.20;;;14.50;56.50;;;;;;4998793;28;20239;-81
2022/12/28 13:20:56;;;;;;;4.67;1.40;;;14.60;55.30;;;;;;5012515;28;20207;-82
2022/12/28 13:23:25;;;;;;;3.20;1.50;;;14.70;55.00;;;;;;5010462;28;20192;-81
2022/12/28 13:25:56;;;;;;;5.93;1.70;;;14.80;54.70;;;;;;5010400;28;20211;-81
2022/12/28 13:28:35;;;;;;;3.33;1.30;;;14.80;54.30;;;;;;5007648;28;20755;-81
2022/12/28 13:31:15;;;;;;;4.50;1.60;;;15.40;53.40;;;;;;5011219;28;20211;-82
2022/12/28 13:33:53;;;;;;;8.27;1.57;;;16.40;52.00;;;;;;5012340;28;20242;-78
2022/12/28 13:36:21;;;;;;;8.40;1.73;;;18.70;50.00;;;;;;5006526;28;20200;-81
2022/12/28 13:39:06;;;;;;;2.67;1.33;;;20.90;47.30;;;;;;5000983;28;20945;-81
2022/12/28 13:41:36;;;;;;;3.83;1.65;;;20.90;46.20;;;;;;5002760;28;20200;-81
2022/12/28 13:44:29;;;;;;;3.72;1.33;;;23.10;44.00;;;;;;5009525;28;20196;-81
2022/12/28 13:47:04;;;;;;;2.65;1.42;;;24.00;41.40;;;;;;5007744;28;20239;-81
2022/12/28 13:49:37;;;;;;;3.88;1.30;;;24.90;40.20;;;;;;5015235;28;20191;-82
2022/12/28 13:52:13;;;;;;;6.18;1.75;;;25.70;39.10;;;;;;5008783;28;20199;-82
2022/12/28 13:54:47;;;;;;;4.68;1.75;;;24.80;40.20;;;;;;5010246;28;20270;-81
2022/12/28 13:57:16;;;;;;;2.75;1.45;;;24.70;39.40;;;;;;5009400;28;20204;-81
2022/12/28 14:00:06;;;;;;;4.43;1.52;;;24.80;39.40;;;;;;5003432;28;20555;-81
2022/12/28 14:02:39;;;;;;;5.28;1.80;;;24.20;39.90;;;;;;4958544;28;20247;-80
2022/12/28 14:05:12;;;;;;;3.78;1.48;;;24.50;37.80;;;;;;5003716;28;20252;-81
2022/12/28 14:07:41;;;;;;;3.28;1.50;;;24.40;37.60;;;;;;5008469;28;20194;-81
2022/12/28 14:10:11;;;;;;;3.95;1.48;;;23.70;37.80;;;;;;5010697;28;20206;-81
2022/12/28 14:12:40;;;;;;;8.27;1.60;;;22.60;39.10;;;;;;5006405;28;20224;-80
2022/12/28 14:15:11;;;;;;;3.65;1.58;;;21.60;40.20;;;;;;5003847;28;20254;-80
2022/12/28 14:17:42;;;;;;;6.25;1.65;;;20.90;41.00;;;;;;4960257;28;20939;-82
2022/12/28 14:20:11;;;;;;;4.28;1.83;;;20.20;41.70;;;;;;5010022;28;20200;-81
2022/12/28 14:22:40;;;;;;;3.87;1.50;;;19.60;42.20;;;;;;5006615;28;20711;-82
2022/12/28 14:25:11;;;;;;;4.57;1.47;;;19.00;43.00;;;;;;5008595;28;20201;-82
2022/12/28 14:27:43;;;;;;;3.50;1.70;;;18.50;43.40;;;;;;5002490;28;20200;-83
2022/12/28 14:30:23;;;;;;;4.30;2.30;;;18.00;43.80;;;;;;5006174;28;20227;-83
2022/12/28 14:33:11;;;;;;;4.73;2.10;;;17.60;44.20;;;;;;5009240;28;20203;-83